Имени Алексея Леонова

СКИДКИ НА СМАРТФОНЫ!

Карта отелей и гостиниц, располагающихся рядом с аэропортом Имени Алексея Леонова :

Имени Алексея Леонова
Кемерово
Кемеровская область 55° 16' 12.1116" N, 86° 6' 27.2592" E
Код аэродрома ИКАО
UNEE
Код аэродрома RU
УНЕЕ
Координаты
N55.27003° E086.10757°
Превышение над уровнем моря
266
Основная полоса
05/23
Курс магнитный
046,2/226,2
Длина основной ВПП
3200
Ширина основной ВПП
60
Покрытие основной ВПП
Твёрдое (цементобетон)
Освещение ВПП
Постоянное
Тип: 
Аэродром
Класс аэродрома: 
Международный
Принадлежность: 
ГА
Статус: 
Действующий
Сайт: 
http://airkem.ru
E-mail аэродрома: 
aerokem@mail.ru
Страна: 
Россия
Регион: 
Кемеровская область
Город: 
Кемерово
Дополнительная информация: 
Допущен к эксплуатации ВС: DС-10, А310, А319, А320, А321, B737, В747, В757, В767, Ил-96, ИЛ-86, ИЛ-76, ИЛ-62М, ТУ-214, ТУ-204, ТУ-154, ТУ-134, ИЛ-18, АН-148, АН-124, АН-74, АН-30, АН-26, АН-24, АН-12, Як-42, Як-40, ATR-42, ВАе125 (Нawker125), ВАе146 (Avro146, RJ70, RJ85, RJ100, RJ115), CL-600 (или «Челленджер» 600 либо «Bombarder» или CRJ -100/200) и модификациями этих типов ВС, а так же другими типами ВС III-го и IV-го классов, вертолётами всех типов, включая вертолеты на полозковом (лыжном) шасси, а также ЕЭВС АОН. Другим категориям ВС - по разовым разрешениям администрации АП, Зап-Сиб МТУ ВТ ФАВТ и ФАВТ (Росавиации) при условии, что классификационные числа искусственных покрытий ИВПП, РД, перрона и МС позволяют производить эксплуатацию аэродрома ВС без ограничений, если выполняется условие: ACN?PCN. Ограничения вводятся по интенсивности движения ВС, при: -1.00>PCN/ACN>0,85 – 10 самолетовылетов в сутки; -0,85>PCN/ACN>0,80 – 2 самолетовылета в сутки; -0,80>PCN/ACN>0,75 – 1 самолетовылет в сутки. Собственник аэропорта Холдинговая компания "Сибирский Деловой Союз" (ХК "СДС"). Хозяйственное ведение и оперативное управление передано Обществу с ограниченной ответственностью "Международный Аэропорт Кемерово имени Алексея Архиповича Леонова" (ООО "МАК им. А.А. Леонова"). Военный индекс: XNEE / ЬНЕЕ.
Погода: 

Авиационная погода в аэропорту Имени Алексея Леонова

Регион: 
Погода METAR: 
UNEE 250400Z 14003MPS 9999 SCT040CB 08/05 Q1011 R23/CLRD60 NOSIG RMK QFE735
Время наблюдения
2022-09-25T04:00:00Z
Температура C
8.0
Точка росы
5.0
Направление ветра
140
Скорость ветра (узлы)
6
Метео видимость
6.21
Облачность
SCT
Нижняя граница облачности (футы)
4000
Явления погоды
Условия полета
VFR
Аэропорт подробнее: 
SCT – разбросанная отдельная облачность;

Скидки на навигаторы!

Найти трансфер

С помощью этой формы Вы можете найти трансфер из аэропорта Имени Алексея Леонова в город, аэропорт или вокзал:

Погода в аэропортах:

Авиационная погода в Храброво

Регион: 
Погода METAR: 
UMKK 250400Z 11001MPS 4400 BR MIFG NSC 08/08 Q1014 R24/CLRD95 NOSIG RMK QFE759/1013
Время наблюдения
2022-09-25T04:00:00Z
Температура C
8.0
Точка росы
8.0
Направление ветра
110
Скорость ветра (узлы)
2
Метео видимость
2.73
Облачность
CLR
Нижняя граница облачности (футы)
Явления погоды
BR MIFG
Условия полета
IFR
Аэропорт подробнее: 
CLR — нет облаков ниже 3000 м
MIFG - туман поземный; BR – дымка (видимость от 1 до 9 км);

Авиационная погода в Курске

Погода METAR: 
UUOK 250400Z 31006MPS 9999 -RA OVC030 07/06 Q1005 R30/290050 NOSIG RMK QFE735/0980
Время наблюдения
2022-09-25T04:00:00Z
Температура C
7.0
Точка росы
6.0
Направление ветра
310
Скорость ветра (узлы)
12
Метео видимость
6.21
Облачность
OVC
Нижняя граница облачности (футы)
3000
Явления погоды
-RA
Условия полета
MVFR
Аэропорт подробнее: 
OVC – сплошная облачность;
-RA - слабый дождь;

Авиационная погода в Воронеже

Регион: 
Погода METAR: 
UUOO 250400Z 24003MPS 9999 -RA OVC026 07/06 Q1004 R30/290150 NOSIG RMK QFE739
Время наблюдения
2022-09-25T04:00:00Z
Температура C
7.0
Точка росы
6.0
Направление ветра
240
Скорость ветра (узлы)
6
Метео видимость
6.21
Облачность
OVC
Нижняя граница облачности (футы)
2600
Явления погоды
-RA
Условия полета
MVFR
Аэропорт подробнее: 
OVC – сплошная облачность;
-RA - слабый дождь;

Авиационная погода в Москва - Шереметьево

Погода METAR: 
UUEE 250400Z 36003MPS 320V030 6000 -DZ OVC003 06/05 Q0997 R06R/290045 R06C/290051 NOSIG
Время наблюдения
2022-09-25T04:00:00Z
Температура C
6.0
Точка росы
5.0
Направление ветра
360
Скорость ветра (узлы)
6
Метео видимость
3.73
Облачность
OVC
Нижняя граница облачности (футы)
300
Явления погоды
-DZ
Условия полета
LIFR
Аэропорт подробнее: 
OVC – сплошная облачность;
-DZ – слабая морось;